Terminal Aerodrome Forecast
Issued by NWS

Home | Current Version | Previous Version | Text Only | Print | Product List | Glossary On
Versions: 1 2 3 4 5 6 7 8 9 10 11 12 13 14 15
000
FTAK31 PAJN 210500
TAFAGY
TAF
PAGY 210520Z 2106/2206 20012G22KT P6SM BKN080
     FM210900 21005KT P6SM BKN080
     FM211600 21010KT P6SM FEW050 BKN080
     FM212000 21010G20KT P6SM BKN080
      AMD LTD TO CLD VIS AND WIND=

USA.gov is the U.S. government's official web portal to all federal, state and local government web resources and services.